Oregon State Flying Club

The Oregon State Flying Club is a non-profit organization committed to providing safe and inexpensive flying to the Oregon State University and Linn-Benton Community College communities. The Club currently owns three aircraft based at the Corvallis Airport for training, travel, and recreational purposes. Founded in 1952 and incorporated in 1956 the OSFC is one of the oldest continuously active flying clubs in the United States.

News & Announcements

OSFC Open House

Corvallis Airport, Saturday, November 7th, 9:00am to 1:00pm


The Pilot - June 2015 edition (pdf)

Monthly Board Meeting

Next Meeting: Wednesday, November 18, 6pm, 105 Memorial Union


Raw METAR:  KCVO 250155Z 01005KT 10SM BKN070 OVC095 05/03 A2996 RMK AO1

This is a report for Corvallis Municipal Automatic Weather Observing / Reporting System, United States. The report was made 13 minutes ago, at 01:55 UTC. The wind was blowing at a speed of 5.8 miles per hour (2.6 meters per second) from north (010°). The temperature was 41 °F (5 °C), with a dew-point at 37 °F (3 °C). The atmospheric pressure was 29.96 inHg (1015 hPa). The relative humidity was 86.9%. There were broken clouds at a height of 7000 feet (2134 meters). The sky was overcast from a height of 9500 feet (2896 meter) The overall visibility was 10.0 miles (16.1 kilometers).